Terminal Aerodrome Forecast
Issued by NWS

Home | Current Version | Previous Version | Text Only | Print | Product List | Glossary On
Versions: 1 2 3 4 5 6 7 8 9 10 11 12
000
FTUS45 KRIW 232300
TAFCPR
TAF
KCPR 232323Z 2400/2424 27014G24KT P6SM BKN070
     FM240200 28015KT P6SM FEW070
     FM240500 25011KT P6SM FEW070
     FM241500 24015KT P6SM FEW070
     FM242100 25020G30KT P6SM FEW080 BKN200=

USA.gov is the U.S. government's official web portal to all federal, state and local government web resources and services.